sensor_id;sensor_type;location;lat;lon;timestamp;pressure;altitude;pressure_sealevel;temperature;humidity
74327;BME280;62745;51.060;13.786;2023-11-21T00:01:37;99500.50;;;8.00;100.00
74327;BME280;62745;51.060;13.786;2023-11-21T00:04:02;99503.03;;;8.08;100.00
74327;BME280;62745;51.060;13.786;2023-11-21T00:06:27;99499.25;;;7.96;100.00
74327;BME280;62745;51.060;13.786;2023-11-21T00:08:54;99499.78;;;8.13;100.00
74327;BME280;62745;51.060;13.786;2023-11-21T00:11:19;99485.25;;;8.15;100.00
74327;BME280;62745;51.060;13.786;2023-11-21T00:13:45;99490.38;;;8.17;100.00
74327;BME280;62745;51.060;13.786;2023-11-21T00:16:10;99501.94;;;8.31;100.00
74327;BME280;62745;51.060;13.786;2023-11-21T00:18:36;99502.25;;;8.42;100.00
74327;BME280;62745;51.060;13.786;2023-11-21T00:21:01;99503.97;;;8.57;100.00
74327;BME280;62745;51.060;13.786;2023-11-21T00:23:26;99504.56;;;8.59;100.00
74327;BME280;62745;51.060;13.786;2023-11-21T00:25:52;99501.72;;;8.60;100.00
74327;BME280;62745;51.060;13.786;2023-11-21T00:28:17;99491.69;;;8.69;100.00
74327;BME280;62745;51.060;13.786;2023-11-21T00:30:42;99504.25;;;8.82;100.00
74327;BME280;62745;51.060;13.786;2023-11-21T00:33:07;99494.44;;;8.82;100.00
74327;BME280;62745;51.060;13.786;2023-11-21T00:35:33;99504.06;;;8.90;100.00
74327;BME280;62745;51.060;13.786;2023-11-21T00:37:58;99503.06;;;8.91;100.00
74327;BME280;62745;51.060;13.786;2023-11-21T00:40:23;99503.03;;;8.84;100.00
74327;BME280;62745;51.060;13.786;2023-11-21T00:42:49;99509.84;;;8.93;100.00
74327;BME280;62745;51.060;13.786;2023-11-21T00:45:15;99509.66;;;9.01;100.00
74327;BME280;62745;51.060;13.786;2023-11-21T00:47:40;99510.81;;;8.86;100.00
74327;BME280;62745;51.060;13.786;2023-11-21T00:50:06;99506.28;;;8.80;100.00
74327;BME280;62745;51.060;13.786;2023-11-21T00:52:32;99518.03;;;8.92;100.00
74327;BME280;62745;51.060;13.786;2023-11-21T00:54:57;99524.59;;;8.96;100.00
74327;BME280;62745;51.060;13.786;2023-11-21T00:57:25;99515.31;;;8.79;100.00
74327;BME280;62745;51.060;13.786;2023-11-21T00:59:50;99524.75;;;8.81;100.00
74327;BME280;62745;51.060;13.786;2023-11-21T01:02:15;99527.47;;;8.94;100.00
74327;BME280;62745;51.060;13.786;2023-11-21T01:04:40;99523.13;;;8.87;100.00
74327;BME280;62745;51.060;13.786;2023-11-21T01:07:06;99521.84;;;8.76;100.00
74327;BME280;62745;51.060;13.786;2023-11-21T01:09:32;99533.09;;;8.71;100.00
74327;BME280;62745;51.060;13.786;2023-11-21T01:11:57;99533.69;;;8.67;100.00
74327;BME280;62745;51.060;13.786;2023-11-21T01:14:24;99538.00;;;8.68;100.00
74327;BME280;62745;51.060;13.786;2023-11-21T01:16:52;99527.56;;;8.73;100.00
74327;BME280;62745;51.060;13.786;2023-11-21T01:19:17;99530.81;;;8.68;100.00
74327;BME280;62745;51.060;13.786;2023-11-21T01:21:42;99537.88;;;8.89;100.00
74327;BME280;62745;51.060;13.786;2023-11-21T01:24:08;99521.41;;;8.72;100.00
74327;BME280;62745;51.060;13.786;2023-11-21T01:26:33;99535.31;;;8.61;100.00
74327;BME280;62745;51.060;13.786;2023-11-21T01:28:59;99541.66;;;8.60;100.00
74327;BME280;62745;51.060;13.786;2023-11-21T01:31:24;99537.44;;;8.79;100.00
74327;BME280;62745;51.060;13.786;2023-11-21T01:33:52;99534.56;;;8.81;100.00
74327;BME280;62745;51.060;13.786;2023-11-21T01:36:17;99523.44;;;8.70;100.00
74327;BME280;62745;51.060;13.786;2023-11-21T01:38:43;99529.88;;;8.83;100.00
74327;BME280;62745;51.060;13.786;2023-11-21T01:41:08;99529.66;;;8.78;100.00
74327;BME280;62745;51.060;13.786;2023-11-21T01:43:36;99533.00;;;8.93;100.00
74327;BME280;62745;51.060;13.786;2023-11-21T01:46:02;99537.66;;;8.84;100.00
74327;BME280;62745;51.060;13.786;2023-11-21T01:48:28;99531.44;;;8.70;100.00
74327;BME280;62745;51.060;13.786;2023-11-21T01:50:54;99522.97;;;8.54;100.00
74327;BME280;62745;51.060;13.786;2023-11-21T01:53:19;99537.53;;;8.58;100.00
74327;BME280;62745;51.060;13.786;2023-11-21T01:55:46;99539.59;;;8.62;100.00
74327;BME280;62745;51.060;13.786;2023-11-21T01:58:11;99538.47;;;8.78;100.00
74327;BME280;62745;51.060;13.786;2023-11-21T02:00:37;99535.38;;;8.74;100.00
74327;BME280;62745;51.060;13.786;2023-11-21T02:03:09;99536.16;;;8.68;100.00
74327;BME280;62745;51.060;13.786;2023-11-21T02:05:35;99531.03;;;8.67;100.00
74327;BME280;62745;51.060;13.786;2023-11-21T02:08:00;99530.88;;;8.75;100.00
74327;BME280;62745;51.060;13.786;2023-11-21T02:10:27;99528.81;;;8.77;100.00
74327;BME280;62745;51.060;13.786;2023-11-21T02:12:54;99537.44;;;8.79;100.00
74327;BME280;62745;51.060;13.786;2023-11-21T02:15:21;99540.88;;;8.73;100.00
74327;BME280;62745;51.060;13.786;2023-11-21T02:17:48;99544.66;;;8.92;100.00
74327;BME280;62745;51.060;13.786;2023-11-21T02:20:17;99547.28;;;8.85;100.00
74327;BME280;62745;51.060;13.786;2023-11-21T02:22:48;99545.84;;;8.83;100.00
74327;BME280;62745;51.060;13.786;2023-11-21T02:25:14;99546.88;;;8.82;100.00
74327;BME280;62745;51.060;13.786;2023-11-21T02:27:39;99553.38;;;8.72;100.00
74327;BME280;62745;51.060;13.786;2023-11-21T02:30:04;99546.59;;;8.70;100.00
74327;BME280;62745;51.060;13.786;2023-11-21T02:32:30;99545.66;;;8.84;100.00
74327;BME280;62745;51.060;13.786;2023-11-21T02:34:56;99538.56;;;8.57;100.00
74327;BME280;62745;51.060;13.786;2023-11-21T02:37:25;99533.56;;;8.82;100.00
74327;BME280;62745;51.060;13.786;2023-11-21T02:39:51;99541.53;;;8.75;100.00
74327;BME280;62745;51.060;13.786;2023-11-21T02:42:16;99545.63;;;8.78;100.00
74327;BME280;62745;51.060;13.786;2023-11-21T02:44:41;99546.84;;;8.75;100.00
74327;BME280;62745;51.060;13.786;2023-11-21T02:47:06;99553.09;;;9.02;100.00
74327;BME280;62745;51.060;13.786;2023-11-21T02:49:32;99548.16;;;8.99;100.00
74327;BME280;62745;51.060;13.786;2023-11-21T02:51:59;99549.94;;;8.85;100.00
74327;BME280;62745;51.060;13.786;2023-11-21T02:54:26;99555.06;;;8.87;100.00
74327;BME280;62745;51.060;13.786;2023-11-21T02:56:52;99554.84;;;8.75;100.00
74327;BME280;62745;51.060;13.786;2023-11-21T02:59:17;99551.47;;;8.60;100.00
74327;BME280;62745;51.060;13.786;2023-11-21T03:01:42;99554.06;;;8.47;100.00
74327;BME280;62745;51.060;13.786;2023-11-21T03:04:08;99544.47;;;8.24;100.00
74327;BME280;62745;51.060;13.786;2023-11-21T03:06:33;99558.53;;;8.18;100.00
74327;BME280;62745;51.060;13.786;2023-11-21T03:08:59;99565.28;;;8.21;100.00
74327;BME280;62745;51.060;13.786;2023-11-21T03:11:24;99562.78;;;8.12;100.00
74327;BME280;62745;51.060;13.786;2023-11-21T03:13:50;99559.69;;;8.09;100.00
74327;BME280;62745;51.060;13.786;2023-11-21T03:16:16;99565.22;;;8.07;100.00
74327;BME280;62745;51.060;13.786;2023-11-21T03:18:41;99542.81;;;7.95;100.00
74327;BME280;62745;51.060;13.786;2023-11-21T03:21:07;99558.38;;;7.98;100.00
74327;BME280;62745;51.060;13.786;2023-11-21T03:23:34;99564.66;;;8.19;100.00
74327;BME280;62745;51.060;13.786;2023-11-21T03:26:00;99567.53;;;8.17;100.00
74327;BME280;62745;51.060;13.786;2023-11-21T03:28:26;99568.94;;;8.13;100.00
74327;BME280;62745;51.060;13.786;2023-11-21T03:30:52;99572.22;;;8.15;100.00
74327;BME280;62745;51.060;13.786;2023-11-21T03:33:17;99570.28;;;8.02;100.00
74327;BME280;62745;51.060;13.786;2023-11-21T03:35:42;99573.91;;;7.95;100.00
74327;BME280;62745;51.060;13.786;2023-11-21T03:38:09;99568.00;;;7.99;100.00
74327;BME280;62745;51.060;13.786;2023-11-21T03:40:35;99570.47;;;8.01;100.00
74327;BME280;62745;51.060;13.786;2023-11-21T03:43:00;99575.53;;;7.96;100.00
74327;BME280;62745;51.060;13.786;2023-11-21T03:45:25;99563.50;;;8.00;100.00
74327;BME280;62745;51.060;13.786;2023-11-21T03:47:51;99581.31;;;7.99;100.00
74327;BME280;62745;51.060;13.786;2023-11-21T03:50:16;99580.78;;;7.89;100.00
74327;BME280;62745;51.060;13.786;2023-11-21T03:52:41;99576.75;;;7.93;100.00
74327;BME280;62745;51.060;13.786;2023-11-21T03:55:07;99581.06;;;7.94;100.00
74327;BME280;62745;51.060;13.786;2023-11-21T03:57:33;99575.84;;;8.07;100.00
74327;BME280;62745;51.060;13.786;2023-11-21T03:59:58;99581.31;;;7.99;100.00
74327;BME280;62745;51.060;13.786;2023-11-21T04:02:23;99585.88;;;7.84;100.00
74327;BME280;62745;51.060;13.786;2023-11-21T04:04:51;99573.47;;;7.91;100.00
74327;BME280;62745;51.060;13.786;2023-11-21T04:07:16;99580.22;;;7.72;100.00
74327;BME280;62745;51.060;13.786;2023-11-21T04:09:41;99579.09;;;7.60;100.00
74327;BME280;62745;51.060;13.786;2023-11-21T04:12:07;99588.91;;;7.60;100.00
74327;BME280;62745;51.060;13.786;2023-11-21T04:14:34;99583.06;;;7.71;100.00
74327;BME280;62745;51.060;13.786;2023-11-21T04:16:59;99588.03;;;7.74;100.00
74327;BME280;62745;51.060;13.786;2023-11-21T04:19:24;99587.31;;;7.65;100.00
74327;BME280;62745;51.060;13.786;2023-11-21T04:21:49;99585.88;;;7.84;100.00
74327;BME280;62745;51.060;13.786;2023-11-21T04:24:15;99583.16;;;7.77;100.00
74327;BME280;62745;51.060;13.786;2023-11-21T04:26:40;99591.88;;;7.71;100.00
74327;BME280;62745;51.060;13.786;2023-11-21T04:29:06;99595.06;;;7.81;100.00
74327;BME280;62745;51.060;13.786;2023-11-21T04:31:31;99595.63;;;7.77;100.00
74327;BME280;62745;51.060;13.786;2023-11-21T04:33:57;99595.09;;;7.67;100.00
74327;BME280;62745;51.060;13.786;2023-11-21T04:36:22;99599.53;;;7.60;100.00
74327;BME280;62745;51.060;13.786;2023-11-21T04:38:47;99600.78;;;7.42;100.00
74327;BME280;62745;51.060;13.786;2023-11-21T04:41:13;99609.41;;;7.44;100.00
74327;BME280;62745;51.060;13.786;2023-11-21T04:43:38;99599.78;;;7.43;100.00
74327;BME280;62745;51.060;13.786;2023-11-21T04:46:03;99611.00;;;7.60;100.00
74327;BME280;62745;51.060;13.786;2023-11-21T04:48:28;99610.56;;;7.57;100.00
74327;BME280;62745;51.060;13.786;2023-11-21T04:50:54;99611.38;;;7.57;100.00
74327;BME280;62745;51.060;13.786;2023-11-21T04:53:19;99617.00;;;7.47;100.00
74327;BME280;62745;51.060;13.786;2023-11-21T04:55:45;99624.28;;;7.60;100.00
74327;BME280;62745;51.060;13.786;2023-11-21T04:58:11;99614.63;;;7.74;100.00
74327;BME280;62745;51.060;13.786;2023-11-21T05:00:37;99596.84;;;7.74;100.00
74327;BME280;62745;51.060;13.786;2023-11-21T05:03:02;99621.63;;;7.81;100.00
74327;BME280;62745;51.060;13.786;2023-11-21T05:05:29;99616.06;;;7.76;100.00
74327;BME280;62745;51.060;13.786;2023-11-21T05:07:55;99622.41;;;7.97;100.00
74327;BME280;62745;51.060;13.786;2023-11-21T05:10:20;99619.13;;;7.95;100.00
74327;BME280;62745;51.060;13.786;2023-11-21T05:12:45;99624.56;;;8.08;100.00
74327;BME280;62745;51.060;13.786;2023-11-21T05:15:14;99613.28;;;7.84;100.00
74327;BME280;62745;51.060;13.786;2023-11-21T05:17:40;99626.78;;;7.83;100.00
74327;BME280;62745;51.060;13.786;2023-11-21T05:20:13;99631.50;;;7.88;100.00
74327;BME280;62745;51.060;13.786;2023-11-21T05:22:39;99642.22;;;7.94;100.00
74327;BME280;62745;51.060;13.786;2023-11-21T05:25:05;99642.28;;;8.01;100.00
74327;BME280;62745;51.060;13.786;2023-11-21T05:27:32;99646.38;;;8.03;100.00
74327;BME280;62745;51.060;13.786;2023-11-21T05:29:58;99644.88;;;8.15;100.00
74327;BME280;62745;51.060;13.786;2023-11-21T05:32:24;99644.38;;;8.27;100.00
74327;BME280;62745;51.060;13.786;2023-11-21T05:34:49;99637.34;;;7.98;100.00
74327;BME280;62745;51.060;13.786;2023-11-21T05:37:15;99645.31;;;7.98;100.00
74327;BME280;62745;51.060;13.786;2023-11-21T05:39:40;99642.84;;;7.96;100.00
74327;BME280;62745;51.060;13.786;2023-11-21T05:42:05;99649.56;;;8.13;100.00
74327;BME280;62745;51.060;13.786;2023-11-21T05:44:31;99650.06;;;8.24;100.00
74327;BME280;62745;51.060;13.786;2023-11-21T05:46:56;99648.53;;;8.14;100.00
74327;BME280;62745;51.060;13.786;2023-11-21T05:49:24;99642.53;;;8.06;100.00
74327;BME280;62745;51.060;13.786;2023-11-21T05:51:51;99643.81;;;8.10;100.00
74327;BME280;62745;51.060;13.786;2023-11-21T05:54:19;99654.84;;;8.07;100.00
74327;BME280;62745;51.060;13.786;2023-11-21T05:56:44;99660.84;;;8.15;100.00
74327;BME280;62745;51.060;13.786;2023-11-21T05:59:09;99645.50;;;8.18;100.00
74327;BME280;62745;51.060;13.786;2023-11-21T06:01:35;99645.38;;;8.04;100.00
74327;BME280;62745;51.060;13.786;2023-11-21T06:04:03;99659.81;;;8.17;100.00
74327;BME280;62745;51.060;13.786;2023-11-21T06:06:29;99656.34;;;8.16;100.00
74327;BME280;62745;51.060;13.786;2023-11-21T06:08:54;99653.94;;;8.00;100.00
74327;BME280;62745;51.060;13.786;2023-11-21T06:11:19;99664.53;;;7.93;100.00
74327;BME280;62745;51.060;13.786;2023-11-21T06:13:44;99662.31;;;7.97;100.00
74327;BME280;62745;51.060;13.786;2023-11-21T06:16:10;99657.59;;;7.99;100.00
74327;BME280;62745;51.060;13.786;2023-11-21T06:18:35;99665.38;;;8.22;100.00
74327;BME280;62745;51.060;13.786;2023-11-21T06:21:00;99671.03;;;8.12;100.00
74327;BME280;62745;51.060;13.786;2023-11-21T06:23:26;99676.28;;;8.05;100.00
74327;BME280;62745;51.060;13.786;2023-11-21T06:25:52;99676.13;;;8.07;100.00
74327;BME280;62745;51.060;13.786;2023-11-21T06:28:18;99677.19;;;8.12;100.00
74327;BME280;62745;51.060;13.786;2023-11-21T06:30:43;99678.19;;;8.11;100.00
74327;BME280;62745;51.060;13.786;2023-11-21T06:33:10;99680.47;;;8.14;100.00
74327;BME280;62745;51.060;13.786;2023-11-21T06:35:35;99684.97;;;8.14;100.00
74327;BME280;62745;51.060;13.786;2023-11-21T06:38:00;99680.16;;;8.46;100.00
74327;BME280;62745;51.060;13.786;2023-11-21T06:40:26;99691.31;;;8.34;100.00
74327;BME280;62745;51.060;13.786;2023-11-21T06:42:52;99694.16;;;8.33;100.00
74327;BME280;62745;51.060;13.786;2023-11-21T06:45:17;99702.78;;;8.35;100.00
74327;BME280;62745;51.060;13.786;2023-11-21T06:47:43;99698.91;;;8.37;100.00
74327;BME280;62745;51.060;13.786;2023-11-21T06:50:08;99697.59;;;8.27;100.00
74327;BME280;62745;51.060;13.786;2023-11-21T06:52:34;99686.06;;;8.41;100.00
74327;BME280;62745;51.060;13.786;2023-11-21T06:54:59;99690.03;;;8.30;100.00
74327;BME280;62745;51.060;13.786;2023-11-21T06:57:24;99677.66;;;8.23;100.00
74327;BME280;62745;51.060;13.786;2023-11-21T06:59:50;99692.25;;;8.27;100.00
74327;BME280;62745;51.060;13.786;2023-11-21T07:02:16;99697.78;;;8.47;100.00
74327;BME280;62745;51.060;13.786;2023-11-21T07:04:43;99697.59;;;8.27;100.00
74327;BME280;62745;51.060;13.786;2023-11-21T07:07:08;99709.94;;;8.34;100.00
74327;BME280;62745;51.060;13.786;2023-11-21T07:09:33;99709.66;;;8.44;100.00
74327;BME280;62745;51.060;13.786;2023-11-21T07:11:59;99709.25;;;8.47;100.00
74327;BME280;62745;51.060;13.786;2023-11-21T07:14:24;99707.97;;;8.64;100.00
74327;BME280;62745;51.060;13.786;2023-11-21T07:16:49;99702.22;;;8.61;100.00
74327;BME280;62745;51.060;13.786;2023-11-21T07:19:16;99705.72;;;8.68;100.00
74327;BME280;62745;51.060;13.786;2023-11-21T07:21:41;99698.91;;;8.59;100.00
74327;BME280;62745;51.060;13.786;2023-11-21T07:24:07;99695.44;;;8.58;100.00
74327;BME280;62745;51.060;13.786;2023-11-21T07:26:34;99712.97;;;8.74;100.00
74327;BME280;62745;51.060;13.786;2023-11-21T07:29:00;99714.63;;;8.75;100.00
74327;BME280;62745;51.060;13.786;2023-11-21T07:31:26;99722.59;;;8.75;100.00
74327;BME280;62745;51.060;13.786;2023-11-21T07:33:51;99726.31;;;8.81;100.00
74327;BME280;62745;51.060;13.786;2023-11-21T07:36:17;99725.34;;;8.60;100.00
74327;BME280;62745;51.060;13.786;2023-11-21T07:38:44;99730.00;;;8.80;100.00
74327;BME280;62745;51.060;13.786;2023-11-21T07:41:10;99720.97;;;8.53;100.00
74327;BME280;62745;51.060;13.786;2023-11-21T07:43:36;99717.22;;;8.68;100.00
74327;BME280;62745;51.060;13.786;2023-11-21T07:46:02;99729.56;;;8.76;100.00
74327;BME280;62745;51.060;13.786;2023-11-21T07:48:29;99729.50;;;8.69;100.00
74327;BME280;62745;51.060;13.786;2023-11-21T07:50:54;99743.25;;;8.73;100.00
74327;BME280;62745;51.060;13.786;2023-11-21T07:53:19;99726.63;;;8.92;100.00
74327;BME280;62745;51.060;13.786;2023-11-21T07:55:45;99738.53;;;8.96;100.00
74327;BME280;62745;51.060;13.786;2023-11-21T07:58:12;99747.94;;;8.92;100.00
74327;BME280;62745;51.060;13.786;2023-11-21T08:00:38;99737.22;;;9.14;100.00
74327;BME280;62745;51.060;13.786;2023-11-21T08:03:04;99748.78;;;8.99;100.00
74327;BME280;62745;51.060;13.786;2023-11-21T08:05:30;99754.28;;;8.70;100.00
74327;BME280;62745;51.060;13.786;2023-11-21T08:07:56;99744.72;;;8.76;100.00
74327;BME280;62745;51.060;13.786;2023-11-21T08:10:21;99748.22;;;8.55;100.00
74327;BME280;62745;51.060;13.786;2023-11-21T08:12:47;99742.22;;;8.46;100.00
74327;BME280;62745;51.060;13.786;2023-11-21T08:15:13;99735.75;;;8.34;100.00
74327;BME280;62745;51.060;13.786;2023-11-21T08:17:38;99753.31;;;8.13;100.00
74327;BME280;62745;51.060;13.786;2023-11-21T08:20:04;99754.00;;;8.22;100.00
74327;BME280;62745;51.060;13.786;2023-11-21T08:22:30;99759.53;;;8.21;100.00
74327;BME280;62745;51.060;13.786;2023-11-21T08:24:56;99756.47;;;8.02;100.00
74327;BME280;62745;51.060;13.786;2023-11-21T08:27:21;99757.66;;;8.00;100.00
74327;BME280;62745;51.060;13.786;2023-11-21T08:29:47;99763.56;;;7.95;100.00
74327;BME280;62745;51.060;13.786;2023-11-21T08:32:12;99757.50;;;7.87;100.00
74327;BME280;62745;51.060;13.786;2023-11-21T08:34:37;99766.88;;;7.82;100.00
74327;BME280;62745;51.060;13.786;2023-11-21T08:37:04;99769.31;;;7.99;100.00
74327;BME280;62745;51.060;13.786;2023-11-21T08:39:30;99768.69;;;7.97;100.00
74327;BME280;62745;51.060;13.786;2023-11-21T08:41:57;99770.19;;;8.06;100.00
74327;BME280;62745;51.060;13.786;2023-11-21T08:44:22;99764.19;;;7.97;100.00
74327;BME280;62745;51.060;13.786;2023-11-21T08:46:48;99766.94;;;7.89;100.00
74327;BME280;62745;51.060;13.786;2023-11-21T08:49:14;99774.34;;;8.08;100.00
74327;BME280;62745;51.060;13.786;2023-11-21T08:51:40;99773.59;;;8.14;100.00
74327;BME280;62745;51.060;13.786;2023-11-21T08:54:06;99772.44;;;8.38;100.00
74327;BME280;62745;51.060;13.786;2023-11-21T08:56:34;99766.38;;;8.44;100.00
74327;BME280;62745;51.060;13.786;2023-11-21T08:58:59;99770.69;;;8.09;100.00
74327;BME280;62745;51.060;13.786;2023-11-21T09:01:31;99773.81;;;7.98;100.00
74327;BME280;62745;51.060;13.786;2023-11-21T09:03:57;99773.97;;;8.11;100.00
74327;BME280;62745;51.060;13.786;2023-11-21T09:06:22;99772.81;;;7.99;100.00
74327;BME280;62745;51.060;13.786;2023-11-21T09:08:48;99780.63;;;7.86;100.00
74327;BME280;62745;51.060;13.786;2023-11-21T09:11:13;99786.16;;;8.06;100.00
74327;BME280;62745;51.060;13.786;2023-11-21T09:13:39;99788.94;;;7.98;100.00
74327;BME280;62745;51.060;13.786;2023-11-21T09:16:04;99786.41;;;7.90;100.00
74327;BME280;62745;51.060;13.786;2023-11-21T09:18:30;99786.47;;;7.96;100.00
74327;BME280;62745;51.060;13.786;2023-11-21T09:20:56;99795.75;;;7.85;100.00
74327;BME280;62745;51.060;13.786;2023-11-21T09:23:21;99800.78;;;7.95;100.00
74327;BME280;62745;51.060;13.786;2023-11-21T09:25:46;99792.56;;;7.90;100.00
74327;BME280;62745;51.060;13.786;2023-11-21T09:28:14;99805.53;;;8.00;100.00
74327;BME280;62745;51.060;13.786;2023-11-21T09:30:39;99803.97;;;8.05;100.00
74327;BME280;62745;51.060;13.786;2023-11-21T09:33:05;99811.13;;;8.05;100.00
74327;BME280;62745;51.060;13.786;2023-11-21T09:35:37;99809.94;;;8.07;100.00
74327;BME280;62745;51.060;13.786;2023-11-21T09:38:03;99803.31;;;8.03;100.00
74327;BME280;62745;51.060;13.786;2023-11-21T09:40:30;99795.56;;;7.87;100.00
74327;BME280;62745;51.060;13.786;2023-11-21T09:42:57;99818.44;;;8.18;100.00
74327;BME280;62745;51.060;13.786;2023-11-21T09:45:28;99817.50;;;8.40;100.00
74327;BME280;62745;51.060;13.786;2023-11-21T09:47:55;99815.78;;;8.54;100.00
74327;BME280;62745;51.060;13.786;2023-11-21T09:50:24;99828.84;;;8.49;100.00
74327;BME280;62745;51.060;13.786;2023-11-21T09:52:56;99824.84;;;8.38;100.00
74327;BME280;62745;51.060;13.786;2023-11-21T09:55:25;99840.16;;;8.36;100.00
74327;BME280;62745;51.060;13.786;2023-11-21T09:57:52;99834.75;;;8.29;100.00
74327;BME280;62745;51.060;13.786;2023-11-21T10:00:19;99836.69;;;8.35;100.00
74327;BME280;62745;51.060;13.786;2023-11-21T10:02:49;99835.59;;;8.15;100.00
74327;BME280;62745;51.060;13.786;2023-11-21T10:05:15;99843.78;;;7.99;100.00
74327;BME280;62745;51.060;13.786;2023-11-21T10:07:43;99844.53;;;7.93;100.00
74327;BME280;62745;51.060;13.786;2023-11-21T10:10:10;99851.59;;;7.41;100.00
74327;BME280;62745;51.060;13.786;2023-11-21T10:12:35;99836.94;;;7.60;100.00
74327;BME280;62745;51.060;13.786;2023-11-21T10:15:02;99864.16;;;7.62;100.00
74327;BME280;62745;51.060;13.786;2023-11-21T10:17:31;99847.09;;;7.71;100.00
74327;BME280;62745;51.060;13.786;2023-11-21T10:20:04;99856.81;;;7.49;100.00
74327;BME280;62745;51.060;13.786;2023-11-21T10:22:39;99865.59;;;7.50;100.00
74327;BME280;62745;51.060;13.786;2023-11-21T10:25:06;99859.91;;;7.38;100.00
74327;BME280;62745;51.060;13.786;2023-11-21T10:27:33;99871.13;;;7.11;100.00
74327;BME280;62745;51.060;13.786;2023-11-21T10:30:01;99872.44;;;7.30;100.00
74327;BME280;62745;51.060;13.786;2023-11-21T10:32:29;99870.81;;;7.29;100.00
74327;BME280;62745;51.060;13.786;2023-11-21T10:34:57;99885.56;;;7.31;100.00
74327;BME280;62745;51.060;13.786;2023-11-21T10:37:22;99878.72;;;7.51;100.00
74327;BME280;62745;51.060;13.786;2023-11-21T10:39:48;99894.44;;;7.38;100.00
74327;BME280;62745;51.060;13.786;2023-11-21T10:42:13;99896.75;;;7.41;100.00
74327;BME280;62745;51.060;13.786;2023-11-21T10:44:41;99897.88;;;7.47;100.00
74327;BME280;62745;51.060;13.786;2023-11-21T10:47:09;99891.28;;;7.43;100.00
74327;BME280;62745;51.060;13.786;2023-11-21T10:49:37;99884.91;;;7.29;100.00
74327;BME280;62745;51.060;13.786;2023-11-21T10:52:02;99902.19;;;7.48;100.00
74327;BME280;62745;51.060;13.786;2023-11-21T10:54:29;99917.22;;;7.18;100.00
74327;BME280;62745;51.060;13.786;2023-11-21T10:57:00;99918.69;;;7.20;100.00
74327;BME280;62745;51.060;13.786;2023-11-21T10:59:28;99898.38;;;7.28;100.00
74327;BME280;62745;51.060;13.786;2023-11-21T11:01:54;99916.69;;;7.22;100.00
74327;BME280;62745;51.060;13.786;2023-11-21T11:04:22;99917.41;;;6.93;100.00
74327;BME280;62745;51.060;13.786;2023-11-21T11:06:57;99917.78;;;7.05;100.00
74327;BME280;62745;51.060;13.786;2023-11-21T11:09:22;99915.75;;;6.92;100.00
74327;BME280;62745;51.060;13.786;2023-11-21T11:11:47;99918.81;;;7.04;100.00
74327;BME280;62745;51.060;13.786;2023-11-21T11:14:14;99923.25;;;7.12;100.00
74327;BME280;62745;51.060;13.786;2023-11-21T11:16:40;99927.09;;;7.09;100.00
74327;BME280;62745;51.060;13.786;2023-11-21T11:19:07;99936.13;;;7.23;100.00
74327;BME280;62745;51.060;13.786;2023-11-21T11:27:01;99905.13;;;7.15;100.00
74327;BME280;62745;51.060;13.786;2023-11-21T11:29:41;99931.22;;;7.12;100.00
74327;BME280;62745;51.060;13.786;2023-11-21T11:35:08;99943.50;;;7.13;100.00
74327;BME280;62745;51.060;13.786;2023-11-21T11:37:35;99948.91;;;7.19;100.00
74327;BME280;62745;51.060;13.786;2023-11-21T11:40:00;99955.13;;;7.12;100.00
74327;BME280;62745;51.060;13.786;2023-11-21T11:42:26;99947.56;;;7.01;100.00
74327;BME280;62745;51.060;13.786;2023-11-21T11:44:52;99956.59;;;7.14;100.00
74327;BME280;62745;51.060;13.786;2023-11-21T11:47:28;99950.81;;;7.11;100.00
74327;BME280;62745;51.060;13.786;2023-11-21T11:50:00;99956.13;;;7.11;100.00
74327;BME280;62745;51.060;13.786;2023-11-21T11:52:36;99950.78;;;6.88;100.00
74327;BME280;62745;51.060;13.786;2023-11-21T11:55:03;99955.97;;;6.81;100.00
74327;BME280;62745;51.060;13.786;2023-11-21T11:57:30;99956.06;;;6.65;100.00
74327;BME280;62745;51.060;13.786;2023-11-21T12:00:12;99962.81;;;6.76;100.00
74327;BME280;62745;51.060;13.786;2023-11-21T12:02:42;99965.16;;;6.71;100.00
74327;BME280;62745;51.060;13.786;2023-11-21T12:05:26;99954.94;;;6.90;100.00
74327;BME280;62745;51.060;13.786;2023-11-21T12:07:59;99963.94;;;7.04;100.00
74327;BME280;62745;51.060;13.786;2023-11-21T12:10:27;99963.31;;;7.02;100.00
74327;BME280;62745;51.060;13.786;2023-11-21T12:12:55;99970.34;;;6.95;100.00
74327;BME280;62745;51.060;13.786;2023-11-21T12:15:22;99973.63;;;6.74;100.00
74327;BME280;62745;51.060;13.786;2023-11-21T12:17:49;99980.75;;;6.74;100.00
74327;BME280;62745;51.060;13.786;2023-11-21T12:20:16;99977.59;;;6.39;100.00
74327;BME280;62745;51.060;13.786;2023-11-21T12:22:45;99981.84;;;6.48;100.00
74327;BME280;62745;51.060;13.786;2023-11-21T12:25:13;99985.91;;;6.67;100.00
74327;BME280;62745;51.060;13.786;2023-11-21T12:27:42;99992.47;;;6.48;100.00
74327;BME280;62745;51.060;13.786;2023-11-21T12:30:08;99994.00;;;6.34;100.00
74327;BME280;62745;51.060;13.786;2023-11-21T12:32:38;99992.00;;;6.45;100.00
74327;BME280;62745;51.060;13.786;2023-11-21T12:35:04;99988.78;;;6.10;100.00
74327;BME280;62745;51.060;13.786;2023-11-21T12:37:32;100001.69;;;6.13;100.00
74327;BME280;62745;51.060;13.786;2023-11-21T12:39:57;99996.69;;;6.18;100.00
74327;BME280;62745;51.060;13.786;2023-11-21T12:42:23;100006.63;;;6.32;100.00
74327;BME280;62745;51.060;13.786;2023-11-21T12:45:06;100009.22;;;6.49;100.00
74327;BME280;62745;51.060;13.786;2023-11-21T12:47:34;100006.38;;;6.50;100.00
74327;BME280;62745;51.060;13.786;2023-11-21T12:50:02;100015.56;;;6.40;100.00
74327;BME280;62745;51.060;13.786;2023-11-21T12:52:27;100007.31;;;6.18;100.00
74327;BME280;62745;51.060;13.786;2023-11-21T12:54:53;100010.47;;;6.22;100.00